createdAt,value
2017-07-05T00:01:10.293Z,16.76
2017-07-05T00:03:42.750Z,16.68
2017-07-05T00:06:15.181Z,16.67
2017-07-05T00:08:47.840Z,16.66
2017-07-05T00:11:20.028Z,16.55
2017-07-05T00:13:52.690Z,16.55
2017-07-05T00:16:24.805Z,16.62
2017-07-05T00:18:57.217Z,16.68
2017-07-05T00:21:29.616Z,16.56
2017-07-05T00:24:02.056Z,16.46
2017-07-05T00:26:34.411Z,16.47
2017-07-05T00:29:07.733Z,16.53
2017-07-05T00:31:40.533Z,16.43
2017-07-05T00:34:13.192Z,16.40
2017-07-05T00:36:44.950Z,16.43
2017-07-05T00:39:17.372Z,16.53
2017-07-05T00:41:49.712Z,16.58
2017-07-05T00:44:22.245Z,16.58
2017-07-05T00:46:54.396Z,16.52
2017-07-05T00:49:26.737Z,16.58
2017-07-05T00:51:59.213Z,16.54
2017-07-05T00:54:31.661Z,16.57
2017-07-05T00:57:04.993Z,16.54
2017-07-05T00:59:37.340Z,16.51
2017-07-05T01:02:09.859Z,16.59
2017-07-05T01:04:42.340Z,16.56
2017-07-05T01:07:15.528Z,16.58
2017-07-05T01:09:47.994Z,16.52
2017-07-05T01:12:20.479Z,16.47
2017-07-05T01:14:52.913Z,16.48
2017-07-05T01:17:25.207Z,16.51
2017-07-05T01:19:57.882Z,16.47
2017-07-05T01:22:30.147Z,16.48
2017-07-05T01:25:02.531Z,16.49
2017-07-05T01:27:34.978Z,16.60
2017-07-05T01:30:07.411Z,16.64
2017-07-05T01:32:39.772Z,16.72
2017-07-05T01:35:11.936Z,16.79
2017-07-05T01:37:44.413Z,16.86
2017-07-05T01:40:16.760Z,16.89
2017-07-05T01:42:49.357Z,16.95
2017-07-05T01:45:22.388Z,16.99
2017-07-05T01:47:54.545Z,17.10
2017-07-05T01:50:26.880Z,17.13
2017-07-05T01:52:59.357Z,17.15
2017-07-05T01:55:31.742Z,17.15
2017-07-05T01:58:04.047Z,17.17
2017-07-05T02:00:36.546Z,17.14
2017-07-05T02:03:09.061Z,17.09
2017-07-05T02:05:41.344Z,17.00
2017-07-05T02:08:13.799Z,16.99
2017-07-05T02:10:46.812Z,16.95
2017-07-05T02:13:18.742Z,16.94
2017-07-05T02:15:51.604Z,16.97
2017-07-05T02:18:23.780Z,16.93
2017-07-05T02:20:56.034Z,16.91
2017-07-05T02:23:28.424Z,16.87
2017-07-05T02:26:00.813Z,16.81
2017-07-05T02:28:33.173Z,16.72
2017-07-05T02:31:05.641Z,16.68
2017-07-05T02:33:38.056Z,16.66
2017-07-05T02:36:10.410Z,16.69
2017-07-05T02:38:43.026Z,16.65
2017-07-05T02:41:15.449Z,16.57
2017-07-05T02:43:47.755Z,16.53
2017-07-05T02:46:20.083Z,16.55
2017-07-05T02:48:52.520Z,16.52
2017-07-05T02:51:24.993Z,16.49
2017-07-05T02:53:57.424Z,16.44
2017-07-05T02:56:29.726Z,16.40
2017-07-05T02:59:02.216Z,16.36
2017-07-05T03:01:34.581Z,16.35
2017-07-05T03:04:06.882Z,16.37
2017-07-05T03:06:39.623Z,16.37
2017-07-05T03:09:11.905Z,16.42
2017-07-05T03:11:44.181Z,16.44
2017-07-05T03:14:16.731Z,16.40
2017-07-05T03:16:49.109Z,16.37
2017-07-05T03:19:22.539Z,16.43
2017-07-05T03:21:54.755Z,16.42
2017-07-05T03:24:28.482Z,16.42
2017-07-05T03:27:00.684Z,16.39
2017-07-05T03:29:33.021Z,16.41
2017-07-05T03:32:05.410Z,16.36
2017-07-05T03:34:38.869Z,16.37
2017-07-05T03:37:11.260Z,16.38
2017-07-05T03:39:43.637Z,16.36
2017-07-05T03:42:16.038Z,16.37
2017-07-05T03:44:48.548Z,16.36
2017-07-05T03:47:20.864Z,16.36
2017-07-05T03:50:00.435Z,16.40
2017-07-05T03:52:32.881Z,16.38
2017-07-05T03:55:05.397Z,16.39
2017-07-05T03:57:37.775Z,16.40
2017-07-05T04:00:10.557Z,16.33
2017-07-05T04:02:42.461Z,16.24
2017-07-05T04:05:14.877Z,16.19
2017-07-05T04:07:47.234Z,16.15
2017-07-05T04:10:20.669Z,16.08
2017-07-05T04:12:53.163Z,16.16
2017-07-05T04:15:25.693Z,16.13
2017-07-05T04:17:58.749Z,16.15
2017-07-05T04:20:31.462Z,16.16
2017-07-05T04:23:03.920Z,16.14
2017-07-05T04:25:36.342Z,16.20
2017-07-05T04:28:08.800Z,16.22
2017-07-05T04:30:41.147Z,16.25
2017-07-05T04:33:13.540Z,16.34
2017-07-05T04:35:45.885Z,16.33
2017-07-05T04:38:18.201Z,16.29
2017-07-05T04:40:50.560Z,16.25
2017-07-05T04:43:23.032Z,16.35
2017-07-05T04:45:55.273Z,16.35
2017-07-05T04:48:27.587Z,16.36
2017-07-05T04:51:00.340Z,16.37
2017-07-05T04:53:32.446Z,16.41
2017-07-05T04:56:04.880Z,16.37
2017-07-05T04:58:38.326Z,16.35
2017-07-05T05:01:10.878Z,16.33
2017-07-05T05:03:43.295Z,16.43
2017-07-05T05:06:15.710Z,16.46
2017-07-05T05:08:47.977Z,16.51
2017-07-05T05:11:20.757Z,16.48
2017-07-05T05:13:52.818Z,16.64
2017-07-05T05:16:25.210Z,16.68
2017-07-05T05:18:57.649Z,16.67
2017-07-05T05:21:30.062Z,16.84
2017-07-05T05:24:02.324Z,16.95
2017-07-05T05:26:34.696Z,17.07
2017-07-05T05:29:07.129Z,17.13
2017-07-05T05:31:39.449Z,17.04
2017-07-05T05:34:11.719Z,16.96
2017-07-05T05:36:45.161Z,16.95
2017-07-05T05:39:17.492Z,16.96
2017-07-05T05:41:49.925Z,16.91
2017-07-05T05:44:22.269Z,17.08
2017-07-05T05:46:54.817Z,17.19
2017-07-05T05:49:27.109Z,17.35
2017-07-05T05:51:59.434Z,17.37
2017-07-05T05:54:31.905Z,17.38
2017-07-05T05:57:04.225Z,17.55
2017-07-05T05:59:36.598Z,17.61
2017-07-05T06:02:08.967Z,17.61
2017-07-05T06:04:41.197Z,17.61
2017-07-05T06:07:13.681Z,17.53
2017-07-05T06:09:46.052Z,17.72
2017-07-05T06:12:18.365Z,17.93
2017-07-05T06:14:50.803Z,17.95
2017-07-05T06:17:23.169Z,18.06
2017-07-05T06:19:55.592Z,17.98
2017-07-05T06:22:27.923Z,17.92
2017-07-05T06:25:00.323Z,17.78
2017-07-05T06:27:32.845Z,17.83
2017-07-05T06:30:05.213Z,17.55
2017-07-05T06:32:37.670Z,17.61
2017-07-05T06:35:10.049Z,17.69
2017-07-05T06:37:42.477Z,17.58
2017-07-05T06:40:14.849Z,17.79
2017-07-05T06:42:47.313Z,18.03
2017-07-05T06:45:19.752Z,18.32
2017-07-05T06:47:53.131Z,18.45
2017-07-05T06:50:25.782Z,18.65
2017-07-05T06:52:57.920Z,18.78
2017-07-05T06:55:30.327Z,18.91
2017-07-05T06:58:02.739Z,19.20
2017-07-05T07:00:35.246Z,19.71
2017-07-05T07:03:07.802Z,20.23
2017-07-05T07:05:40.201Z,20.66
2017-07-05T07:08:12.666Z,20.80
2017-07-05T07:10:44.956Z,21.14
2017-07-05T07:13:17.717Z,21.40
2017-07-05T07:15:49.705Z,21.57
2017-07-05T07:18:22.108Z,21.32
2017-07-05T07:20:54.553Z,20.94
2017-07-05T07:23:26.939Z,20.78
2017-07-05T07:26:00.470Z,20.33
2017-07-05T07:28:38.914Z,19.87
2017-07-05T07:31:11.332Z,19.66
2017-07-05T07:33:43.405Z,19.63
2017-07-05T07:36:15.773Z,19.73
2017-07-05T07:38:48.156Z,19.73
2017-07-05T07:41:20.434Z,19.53
2017-07-05T07:43:53.207Z,19.18
2017-07-05T07:46:25.841Z,19.28
2017-07-05T07:48:57.850Z,19.32
2017-07-05T07:51:30.385Z,19.19
2017-07-05T07:54:02.883Z,19.04
2017-07-05T07:56:35.225Z,19.02
2017-07-05T07:59:07.641Z,18.95
2017-07-05T08:01:40.068Z,18.90
2017-07-05T08:04:12.423Z,18.83
2017-07-05T08:06:44.901Z,18.99
2017-07-05T08:09:17.298Z,19.07
2017-07-05T08:11:50.521Z,18.98
2017-07-05T08:14:23.013Z,19.18
2017-07-05T08:16:55.694Z,19.38
2017-07-05T08:19:27.889Z,19.46
2017-07-05T08:22:01.023Z,19.40
2017-07-05T08:24:33.860Z,19.43
2017-07-05T08:27:06.060Z,19.63
2017-07-05T08:29:38.441Z,19.83
2017-07-05T08:32:10.794Z,19.98
2017-07-05T08:34:43.346Z,19.71
2017-07-05T08:37:15.748Z,19.58
2017-07-05T08:39:48.200Z,19.56
2017-07-05T08:42:20.629Z,19.62
2017-07-05T08:44:53.040Z,19.95
2017-07-05T08:47:25.649Z,20.18
2017-07-05T08:49:57.996Z,20.45
2017-07-05T08:52:30.411Z,20.51
2017-07-05T08:55:02.786Z,20.61
2017-07-05T08:57:35.112Z,20.64
2017-07-05T09:00:07.542Z,20.81
2017-07-05T09:02:39.848Z,20.98
2017-07-05T09:05:12.191Z,20.88
2017-07-05T09:07:44.686Z,20.88
2017-07-05T09:10:17.196Z,21.13
2017-07-05T09:12:49.546Z,21.52
2017-07-05T09:15:21.945Z,21.82
2017-07-05T09:17:54.317Z,21.87
2017-07-05T09:20:26.598Z,22.02
2017-07-05T09:22:58.843Z,22.46
2017-07-05T09:25:31.310Z,22.58
2017-07-05T09:28:03.645Z,23.17
2017-07-05T09:30:36.403Z,23.36
2017-07-05T09:33:08.532Z,23.27
2017-07-05T09:35:40.976Z,23.39
2017-07-05T09:38:13.457Z,24.15
2017-07-05T09:40:45.790Z,24.70
2017-07-05T09:43:18.156Z,25.32
2017-07-05T09:45:50.636Z,25.31
2017-07-05T09:48:23.141Z,24.40
2017-07-05T09:50:55.357Z,24.58
2017-07-05T09:53:28.038Z,24.74
2017-07-05T09:56:01.160Z,25.02
2017-07-05T09:58:33.803Z,26.14
2017-07-05T10:01:06.189Z,27.71
2017-07-05T10:03:38.789Z,28.71
2017-07-05T10:06:11.178Z,29.20
2017-07-05T10:08:44.062Z,28.97
2017-07-05T10:11:15.977Z,28.75
2017-07-05T10:13:48.386Z,29.10
2017-07-05T10:16:20.978Z,29.19
2017-07-05T10:18:53.394Z,29.27
2017-07-05T10:21:25.826Z,29.86
2017-07-05T10:23:58.246Z,29.08
2017-07-05T10:26:35.806Z,27.99
2017-07-05T10:29:08.051Z,27.49
2017-07-05T10:31:40.727Z,27.76
2017-07-05T10:34:12.958Z,28.00
2017-07-05T10:36:45.302Z,27.72
2017-07-05T10:39:17.637Z,27.12
2017-07-05T10:41:49.958Z,27.19
2017-07-05T10:44:22.277Z,27.66
2017-07-05T10:46:54.753Z,27.39
2017-07-05T10:49:27.113Z,27.72
2017-07-05T10:51:59.501Z,28.21
2017-07-05T10:54:31.705Z,28.06
2017-07-05T10:57:03.957Z,27.50
2017-07-05T10:59:36.649Z,28.09
2017-07-05T11:02:08.697Z,28.35
2017-07-05T11:04:41.730Z,29.14
2017-07-05T11:07:14.469Z,29.33
2017-07-05T11:09:46.805Z,29.57
2017-07-05T11:12:19.195Z,29.66
2017-07-05T11:14:51.460Z,29.63
2017-07-05T11:17:24.224Z,29.66
2017-07-05T11:19:56.297Z,29.92
2017-07-05T11:22:28.740Z,29.89
2017-07-05T11:25:01.329Z,30.13
2017-07-05T11:27:33.637Z,29.50
2017-07-05T11:30:06.487Z,29.67
2017-07-05T11:32:38.718Z,29.60
2017-07-05T11:35:11.464Z,29.69
2017-07-05T11:37:43.618Z,30.17
2017-07-05T11:40:15.979Z,30.42
2017-07-05T11:42:48.968Z,30.22
2017-07-05T11:45:21.723Z,29.85
2017-07-05T11:47:54.171Z,30.24
2017-07-05T11:50:26.632Z,29.94
2017-07-05T11:52:59.022Z,30.20
2017-07-05T11:55:31.430Z,30.50
2017-07-05T11:58:03.822Z,30.14
2017-07-05T12:00:36.166Z,29.39
2017-07-05T12:03:08.801Z,29.35
2017-07-05T12:05:41.002Z,29.87
2017-07-05T12:08:14.289Z,29.99
2017-07-05T12:10:46.856Z,29.80
2017-07-05T12:13:19.264Z,29.51
2017-07-05T12:15:51.576Z,29.60
2017-07-05T12:18:24.273Z,29.73
2017-07-05T12:20:56.457Z,30.10
2017-07-05T12:23:28.744Z,30.59
2017-07-05T12:26:01.548Z,31.14
2017-07-05T12:28:33.543Z,31.41
2017-07-05T12:31:05.950Z,31.68
2017-07-05T12:33:38.337Z,32.18
2017-07-05T12:36:10.814Z,32.88
2017-07-05T12:38:43.311Z,33.29
2017-07-05T12:41:15.750Z,32.84
2017-07-05T12:43:48.430Z,32.92
2017-07-05T12:46:21.531Z,32.65
2017-07-05T12:48:53.956Z,32.34
2017-07-05T12:51:26.315Z,31.96
2017-07-05T12:53:58.618Z,31.11
2017-07-05T12:56:30.924Z,31.15
2017-07-05T12:59:04.338Z,31.86
2017-07-05T13:01:36.773Z,32.81
2017-07-05T13:04:09.173Z,33.09
2017-07-05T13:06:41.885Z,33.35
2017-07-05T13:09:14.013Z,33.50
2017-07-05T13:11:46.328Z,32.54
2017-07-05T13:16:58.104Z,30.81
2017-07-05T13:19:30.573Z,29.90
2017-07-05T13:22:03.010Z,29.23
2017-07-05T13:24:35.398Z,29.09
2017-07-05T13:27:07.833Z,29.22
2017-07-05T13:29:40.241Z,29.29
2017-07-05T13:32:12.517Z,29.47
2017-07-05T13:34:45.005Z,29.66
2017-07-05T13:37:17.350Z,29.59
2017-07-05T13:39:49.872Z,29.95
2017-07-05T13:42:22.310Z,29.84
2017-07-05T13:45:01.672Z,30.06
2017-07-05T13:47:34.178Z,30.51
2017-07-05T13:50:06.635Z,30.60
2017-07-05T13:52:38.995Z,30.42
2017-07-05T13:55:11.414Z,30.12
2017-07-05T13:57:43.940Z,29.93
2017-07-05T14:00:16.190Z,29.81
2017-07-05T14:02:48.592Z,29.60
2017-07-05T14:05:21.060Z,29.87
2017-07-05T14:07:53.581Z,30.19
2017-07-05T14:10:25.937Z,30.31
2017-07-05T14:12:58.436Z,30.38
2017-07-05T14:15:30.805Z,30.23
2017-07-05T14:18:03.143Z,30.33
2017-07-05T14:20:35.584Z,30.59
2017-07-05T14:23:08.093Z,30.74
2017-07-05T14:25:40.496Z,30.92
2017-07-05T14:28:12.920Z,31.03
2017-07-05T14:30:45.461Z,29.73
2017-07-05T14:33:17.766Z,29.93
2017-07-05T14:35:50.457Z,30.11
2017-07-05T14:38:22.617Z,30.24
2017-07-05T14:40:54.938Z,30.35
2017-07-05T14:43:27.173Z,29.90
2017-07-05T14:45:59.665Z,29.89
2017-07-05T14:48:32.209Z,29.05
2017-07-05T14:51:04.589Z,29.12
2017-07-05T14:53:36.993Z,29.06
2017-07-05T14:56:09.317Z,29.10
2017-07-05T14:58:41.648Z,29.39
2017-07-05T15:01:14.510Z,29.03
2017-07-05T15:03:46.340Z,28.86
2017-07-05T15:06:18.782Z,28.93
2017-07-05T15:08:51.198Z,29.01
2017-07-05T15:11:23.725Z,29.11
2017-07-05T15:13:56.141Z,29.08
2017-07-05T15:16:28.492Z,29.07
2017-07-05T15:19:00.680Z,29.08
2017-07-05T15:21:33.111Z,28.91
2017-07-05T15:24:05.464Z,28.87
2017-07-05T15:26:37.870Z,28.91
2017-07-05T15:29:10.082Z,28.88
2017-07-05T15:31:42.572Z,28.84
2017-07-05T15:34:14.961Z,28.78
2017-07-05T15:36:48.097Z,28.76
2017-07-05T15:39:20.909Z,28.77
2017-07-05T15:41:53.018Z,28.83
2017-07-05T15:44:25.512Z,28.45
2017-07-05T15:46:57.964Z,28.46
2017-07-05T15:49:30.367Z,28.51
2017-07-05T15:52:02.696Z,28.56
2017-07-05T15:54:35.268Z,28.61
2017-07-05T15:57:07.472Z,28.72
2017-07-05T15:59:39.836Z,28.78
2017-07-05T16:02:12.285Z,28.81
2017-07-05T16:04:45.580Z,28.70
2017-07-05T16:07:17.989Z,28.54
2017-07-05T16:09:50.331Z,28.42
2017-07-05T16:12:22.717Z,28.25
2017-07-05T16:14:55.166Z,28.15
2017-07-05T16:17:27.677Z,28.02
2017-07-05T16:20:01.009Z,27.92
2017-07-05T16:22:33.566Z,27.88
2017-07-05T16:25:06.107Z,27.93
2017-07-05T16:27:38.176Z,27.89
2017-07-05T16:30:10.556Z,27.59
2017-07-05T16:32:42.971Z,27.43
2017-07-05T16:35:15.318Z,27.33
2017-07-05T16:37:47.684Z,27.30
2017-07-05T16:40:20.021Z,27.34
2017-07-05T16:42:52.368Z,27.39
2017-07-05T16:45:24.699Z,27.38
2017-07-05T16:47:56.989Z,27.29
2017-07-05T16:50:29.380Z,27.28
2017-07-05T16:53:01.777Z,27.13
2017-07-05T16:55:34.976Z,26.71
2017-07-05T16:58:07.513Z,26.65
2017-07-05T17:00:39.841Z,26.61
2017-07-05T17:03:12.337Z,26.54
2017-07-05T17:05:44.667Z,26.52
2017-07-05T17:08:17.203Z,26.58
2017-07-05T17:10:49.690Z,26.51
2017-07-05T17:13:22.083Z,26.27
2017-07-05T17:15:54.601Z,26.27
2017-07-05T17:18:27.050Z,26.05
2017-07-05T17:20:59.205Z,25.83
2017-07-05T17:23:31.524Z,25.80
2017-07-05T17:26:03.911Z,25.52
2017-07-05T17:28:36.170Z,25.30
2017-07-05T17:31:08.512Z,25.30
2017-07-05T17:33:40.997Z,25.20
2017-07-05T17:36:13.683Z,25.12
2017-07-05T17:38:45.873Z,25.07
2017-07-05T17:41:18.273Z,25.11
2017-07-05T17:43:51.346Z,25.15
2017-07-05T17:46:23.986Z,25.19
2017-07-05T17:48:56.758Z,25.26
2017-07-05T17:51:28.574Z,25.29
2017-07-05T17:54:00.933Z,25.30
2017-07-05T17:56:33.167Z,25.27
2017-07-05T17:59:05.617Z,25.24
2017-07-05T18:01:37.854Z,25.16
2017-07-05T18:04:10.217Z,25.05
2017-07-05T18:06:42.528Z,25.13
2017-07-05T18:09:14.878Z,25.05
2017-07-05T18:11:47.269Z,24.96
2017-07-05T18:14:19.546Z,24.78
2017-07-05T18:16:52.114Z,24.49
2017-07-05T18:19:24.245Z,24.51
2017-07-05T18:21:56.087Z,24.30
2017-07-05T18:24:28.475Z,24.19
2017-07-05T18:27:00.777Z,24.11
2017-07-05T18:29:33.237Z,24.11
2017-07-05T18:32:06.453Z,24.16
2017-07-05T18:34:38.934Z,24.16
2017-07-05T18:37:11.378Z,24.04
2017-07-05T18:39:43.809Z,23.82
2017-07-05T18:42:16.199Z,23.60
2017-07-05T18:44:48.539Z,23.50
2017-07-05T18:47:20.897Z,23.37
2017-07-05T18:49:53.340Z,23.34
2017-07-05T18:52:25.813Z,23.24
2017-07-05T18:54:58.354Z,23.09
2017-07-05T18:57:30.862Z,23.09
2017-07-05T19:00:03.006Z,23.14
2017-07-05T19:02:35.610Z,23.17
2017-07-05T19:05:07.790Z,23.17
2017-07-05T19:07:40.169Z,23.15
2017-07-05T19:10:12.581Z,23.08
2017-07-05T19:12:44.920Z,22.99
2017-07-05T19:15:17.399Z,22.89
2017-07-05T19:17:49.821Z,22.74
2017-07-05T19:20:22.865Z,22.64
2017-07-05T19:22:54.747Z,22.52
2017-07-05T19:25:27.375Z,22.39
2017-07-05T19:27:59.630Z,22.23
2017-07-05T19:30:32.301Z,22.11
2017-07-05T19:33:04.608Z,22.04
2017-07-05T19:35:37.824Z,21.95
2017-07-05T19:38:10.988Z,21.84
2017-07-05T19:40:43.509Z,21.78
2017-07-05T19:43:15.926Z,21.76
2017-07-05T19:45:48.301Z,21.72
2017-07-05T19:48:21.910Z,21.70
2017-07-05T19:50:54.505Z,21.66
2017-07-05T19:53:26.839Z,21.54
2017-07-05T19:55:59.244Z,21.58
2017-07-05T19:58:32.605Z,21.53
2017-07-05T20:01:05.193Z,21.59
2017-07-05T20:03:37.490Z,21.56
2017-07-05T20:06:10.162Z,21.50
2017-07-05T20:08:42.271Z,21.49
2017-07-05T20:11:14.671Z,21.48
2017-07-05T20:13:46.945Z,21.39
2017-07-05T20:16:20.213Z,21.35
2017-07-05T20:18:52.750Z,21.35
2017-07-05T20:21:25.141Z,21.32
2017-07-05T20:23:57.793Z,21.29
2017-07-05T20:26:29.848Z,21.22
2017-07-05T20:29:03.176Z,21.24
2017-07-05T20:31:35.892Z,21.14
2017-07-05T20:34:08.276Z,21.06
2017-07-05T20:36:40.717Z,21.07
2017-07-05T20:39:13.053Z,21.03
2017-07-05T20:41:45.442Z,20.92
2017-07-05T20:44:17.750Z,20.89
2017-07-05T20:46:50.121Z,20.85
2017-07-05T20:49:22.464Z,20.87
2017-07-05T20:51:55.641Z,20.87
2017-07-05T20:54:28.290Z,20.91
2017-07-05T20:57:00.624Z,20.90
2017-07-05T20:59:33.053Z,20.91
2017-07-05T21:02:05.482Z,20.93
2017-07-05T21:04:38.007Z,20.88
2017-07-05T21:07:10.400Z,20.90
2017-07-05T21:09:42.893Z,20.91
2017-07-05T21:12:15.253Z,20.83
2017-07-05T21:14:47.770Z,20.81
2017-07-05T21:17:27.960Z,20.79
2017-07-05T21:20:00.611Z,20.73
2017-07-05T21:22:33.066Z,20.68
2017-07-05T21:25:05.370Z,20.65
2017-07-05T21:27:37.771Z,20.62
2017-07-05T21:30:10.201Z,20.63
2017-07-05T21:32:42.645Z,20.60
2017-07-05T21:35:15.100Z,20.60
2017-07-05T21:37:47.612Z,20.60
2017-07-05T21:40:20.065Z,20.58
2017-07-05T21:42:52.514Z,20.49
2017-07-05T21:45:28.475Z,20.41
2017-07-05T21:48:03.505Z,20.34
2017-07-05T21:50:35.994Z,20.33
2017-07-05T21:53:08.384Z,20.30
2017-07-05T21:55:40.840Z,20.27
2017-07-05T21:58:13.227Z,20.27
2017-07-05T22:00:45.600Z,20.22
2017-07-05T22:03:18.012Z,20.20
2017-07-05T22:05:50.384Z,20.10
2017-07-05T22:08:22.793Z,19.91
2017-07-05T22:10:55.165Z,19.79
2017-07-05T22:13:27.542Z,19.76
2017-07-05T22:15:59.934Z,19.69
2017-07-05T22:18:32.326Z,19.60
2017-07-05T22:21:04.801Z,19.55
2017-07-05T22:23:37.173Z,19.50
2017-07-05T22:26:09.742Z,19.46
2017-07-05T22:28:42.237Z,19.37
2017-07-05T22:31:14.591Z,19.38
2017-07-05T22:33:47.482Z,19.33
2017-07-05T22:36:21.146Z,19.29
2017-07-05T22:38:53.477Z,19.23
2017-07-05T22:41:25.923Z,19.09
2017-07-05T22:43:58.313Z,19.06
2017-07-05T22:46:30.695Z,19.06
2017-07-05T22:49:04.128Z,19.04
2017-07-05T22:51:36.530Z,19.01
2017-07-05T22:54:08.840Z,18.96
2017-07-05T22:56:41.304Z,18.88
2017-07-05T22:59:14.086Z,18.88
2017-07-05T23:01:46.354Z,18.88
2017-07-05T23:04:18.466Z,18.92
2017-07-05T23:06:51.191Z,18.92
2017-07-05T23:09:23.287Z,18.94
2017-07-05T23:11:55.735Z,18.95
2017-07-05T23:14:28.393Z,18.93
2017-07-05T23:17:00.500Z,18.92
2017-07-05T23:19:32.978Z,18.96
2017-07-05T23:22:05.312Z,18.94
2017-07-05T23:24:37.753Z,18.96
2017-07-05T23:27:10.171Z,18.92
2017-07-05T23:29:42.668Z,18.84
2017-07-05T23:32:15.144Z,18.78
2017-07-05T23:34:48.540Z,18.77
2017-07-05T23:37:21.014Z,18.71
2017-07-05T23:39:53.382Z,18.69
2017-07-05T23:42:25.762Z,18.65
2017-07-05T23:44:58.179Z,18.65
2017-07-05T23:47:30.387Z,18.66
2017-07-05T23:50:02.800Z,18.65
2017-07-05T23:52:35.253Z,18.65
2017-07-05T23:55:07.616Z,18.58
2017-07-05T23:57:40.195Z,18.50
